sensor_id;sensor_type;location;lat;lon;timestamp;pressure;altitude;pressure_sealevel;temperature;humidity
11678;BME280;5895;41.950;24.372;2023-06-14T00:01:14;86698.16;;;13.81;100.00
11678;BME280;5895;41.950;24.372;2023-06-14T00:03:42;86702.81;;;13.79;100.00
11678;BME280;5895;41.950;24.372;2023-06-14T00:06:10;86698.41;;;13.79;100.00
11678;BME280;5895;41.950;24.372;2023-06-14T00:08:37;86690.81;;;13.77;100.00
11678;BME280;5895;41.950;24.372;2023-06-14T00:11:05;86685.34;;;13.79;100.00
11678;BME280;5895;41.950;24.372;2023-06-14T00:13:32;86684.56;;;13.79;100.00
11678;BME280;5895;41.950;24.372;2023-06-14T00:15:59;86690.81;;;13.77;100.00
11678;BME280;5895;41.950;24.372;2023-06-14T00:18:27;86677.78;;;13.77;100.00
11678;BME280;5895;41.950;24.372;2023-06-14T00:20:56;86680.88;;;13.74;100.00
11678;BME280;5895;41.950;24.372;2023-06-14T00:23:23;86674.66;;;13.75;100.00
11678;BME280;5895;41.950;24.372;2023-06-14T00:25:51;86675.44;;;13.76;100.00
11678;BME280;5895;41.950;24.372;2023-06-14T00:28:18;86675.44;;;13.76;100.00
11678;BME280;5895;41.950;24.372;2023-06-14T00:30:45;86670.44;;;13.74;100.00
11678;BME280;5895;41.950;24.372;2023-06-14T00:33:13;86673.31;;;13.73;100.00
11678;BME280;5895;41.950;24.372;2023-06-14T00:35:40;86673.31;;;13.73;100.00
11678;BME280;5895;41.950;24.372;2023-06-14T00:38:09;86675.41;;;13.71;100.00
11678;BME280;5895;41.950;24.372;2023-06-14T00:40:36;86667.81;;;13.69;100.00
11678;BME280;5895;41.950;24.372;2023-06-14T00:43:03;86669.09;;;13.67;100.00
11678;BME280;5895;41.950;24.372;2023-06-14T00:45:30;86663.63;;;13.68;100.00
11678;BME280;5895;41.950;24.372;2023-06-14T00:48:01;86663.63;;;13.68;100.00
11678;BME280;5895;41.950;24.372;2023-06-14T00:50:29;86667.28;;;13.67;100.00
11678;BME280;5895;41.950;24.372;2023-06-14T00:52:58;86656.31;;;13.65;100.00
11678;BME280;5895;41.950;24.372;2023-06-14T00:55:28;86663.34;;;13.65;100.00
11678;BME280;5895;41.950;24.372;2023-06-14T00:57:55;86668.78;;;13.63;100.00
11678;BME280;5895;41.950;24.372;2023-06-14T01:00:23;86660.19;;;13.63;100.00
11678;BME280;5895;41.950;24.372;2023-06-14T01:02:50;86654.97;;;13.63;100.00
11678;BME280;5895;41.950;24.372;2023-06-14T01:05:17;86659.41;;;13.62;100.00
11678;BME280;5895;41.950;24.372;2023-06-14T01:08:04;86653.91;;;13.59;100.00
11678;BME280;5895;41.950;24.372;2023-06-14T01:10:43;86651.00;;;13.55;100.00
11678;BME280;5895;41.950;24.372;2023-06-14T01:13:21;86660.91;;;13.53;100.00
11678;BME280;5895;41.950;24.372;2023-06-14T01:15:51;86653.09;;;13.53;100.00
11678;BME280;5895;41.950;24.372;2023-06-14T01:18:19;86652.31;;;13.53;100.00
11678;BME280;5895;41.950;24.372;2023-06-14T01:20:47;86656.69;;;13.52;100.00
11678;BME280;5895;41.950;24.372;2023-06-14T01:23:17;86655.91;;;13.52;100.00
11678;BME280;5895;41.950;24.372;2023-06-14T01:25:45;86652.00;;;13.49;100.00
11678;BME280;5895;41.950;24.372;2023-06-14T01:28:15;86646.78;;;13.49;100.00
11678;BME280;5895;41.950;24.372;2023-06-14T01:30:44;86654.59;;;13.49;100.00
11678;BME280;5895;41.950;24.372;2023-06-14T01:33:14;86650.97;;;13.50;100.00
11678;BME280;5895;41.950;24.372;2023-06-14T01:35:44;86652.00;;;13.49;100.00
11678;BME280;5895;41.950;24.372;2023-06-14T01:38:13;86650.44;;;13.48;100.00
11678;BME280;5895;41.950;24.372;2023-06-14T01:40:43;86647.25;;;13.46;100.00
11678;BME280;5895;41.950;24.372;2023-06-14T01:43:11;86647.25;;;13.46;100.00
11678;BME280;5895;41.950;24.372;2023-06-14T01:45:40;86646.47;;;13.45;100.00
11678;BME280;5895;41.950;24.372;2023-06-14T01:48:08;86652.97;;;13.43;100.00
11678;BME280;5895;41.950;24.372;2023-06-14T01:50:36;86652.97;;;13.43;100.00
11678;BME280;5895;41.950;24.372;2023-06-14T01:53:03;86645.13;;;13.38;100.00
11678;BME280;5895;41.950;24.372;2023-06-14T01:55:30;86644.59;;;13.41;100.00
11678;BME280;5895;41.950;24.372;2023-06-14T01:58:04;86643.81;;;13.40;100.00
11678;BME280;5895;41.950;24.372;2023-06-14T02:00:31;86640.94;;;13.37;100.00
11678;BME280;5895;41.950;24.372;2023-06-14T02:02:58;86641.97;;;13.36;100.00
11678;BME280;5895;41.950;24.372;2023-06-14T02:05:26;86647.69;;;13.33;100.00
11678;BME280;5895;41.950;24.372;2023-06-14T02:07:53;86648.16;;;13.30;100.00
11678;BME280;5895;41.950;24.372;2023-06-14T02:10:20;86651.78;;;13.29;100.00
11678;BME280;5895;41.950;24.372;2023-06-14T02:12:47;86663.78;;;13.30;100.00
11678;BME280;5895;41.950;24.372;2023-06-14T02:15:17;86664.03;;;13.28;100.00
11678;BME280;5895;41.950;24.372;2023-06-14T02:17:45;86662.72;;;13.26;100.00
11678;BME280;5895;41.950;24.372;2023-06-14T02:20:12;86655.94;;;13.25;100.00
11678;BME280;5895;41.950;24.372;2023-06-14T02:22:40;86657.50;;;13.26;100.00
11678;BME280;5895;41.950;24.372;2023-06-14T02:25:08;86662.72;;;13.26;100.00
11678;BME280;5895;41.950;24.372;2023-06-14T02:27:35;86657.22;;;13.22;100.00
11678;BME280;5895;41.950;24.372;2023-06-14T02:30:03;86658.00;;;13.22;100.00
11678;BME280;5895;41.950;24.372;2023-06-14T02:32:32;86650.44;;;13.21;100.00
11678;BME280;5895;41.950;24.372;2023-06-14T02:34:59;86648.03;;;13.19;100.00
11678;BME280;5895;41.950;24.372;2023-06-14T02:37:26;86655.84;;;13.19;100.00
11678;BME280;5895;41.950;24.372;2023-06-14T02:39:54;86657.91;;;13.17;100.00
11678;BME280;5895;41.950;24.372;2023-06-14T02:42:21;86657.38;;;13.15;100.00
11678;BME280;5895;41.950;24.372;2023-06-14T02:44:48;86650.59;;;13.14;100.00
11678;BME280;5895;41.950;24.372;2023-06-14T02:47:16;86665.66;;;13.12;100.00
11678;BME280;5895;41.950;24.372;2023-06-14T02:49:45;86668.78;;;13.09;100.00
11678;BME280;5895;41.950;24.372;2023-06-14T02:52:12;86662.78;;;13.09;100.00
11678;BME280;5895;41.950;24.372;2023-06-14T02:54:40;86665.13;;;13.10;100.00
11678;BME280;5895;41.950;24.372;2023-06-14T02:57:07;86663.56;;;13.09;100.00
11678;BME280;5895;41.950;24.372;2023-06-14T02:59:36;86669.56;;;13.10;100.00
11678;BME280;5895;41.950;24.372;2023-06-14T03:02:03;86669.56;;;13.10;100.00
11678;BME280;5895;41.950;24.372;2023-06-14T03:04:31;86677.63;;;13.08;100.00
11678;BME280;5895;41.950;24.372;2023-06-14T03:07:05;86673.97;;;13.09;100.00
11678;BME280;5895;41.950;24.372;2023-06-14T03:09:35;86679.19;;;13.09;100.00
11678;BME280;5895;41.950;24.372;2023-06-14T03:12:04;86683.63;;;13.09;100.00
11678;BME280;5895;41.950;24.372;2023-06-14T03:14:33;86687.25;;;13.08;100.00
11678;BME280;5895;41.950;24.372;2023-06-14T03:17:00;86687.47;;;13.06;100.00
11678;BME280;5895;41.950;24.372;2023-06-14T03:19:27;86690.09;;;13.06;100.00
11678;BME280;5895;41.950;24.372;2023-06-14T03:21:55;86687.72;;;13.05;100.00
11678;BME280;5895;41.950;24.372;2023-06-14T03:24:24;86688.53;;;13.05;100.00
11678;BME280;5895;41.950;24.372;2023-06-14T03:26:52;86693.72;;;13.05;100.00
11678;BME280;5895;41.950;24.372;2023-06-14T03:29:20;86700.75;;;13.05;100.00
11678;BME280;5895;41.950;24.372;2023-06-14T03:31:57;86689.03;;;13.02;100.00
11678;BME280;5895;41.950;24.372;2023-06-14T03:34:25;86692.16;;;13.04;100.00
11678;BME280;5895;41.950;24.372;2023-06-14T03:36:52;86696.59;;;13.04;100.00
11678;BME280;5895;41.950;24.372;2023-06-14T03:39:19;86697.84;;;13.01;100.00
11678;BME280;5895;41.950;24.372;2023-06-14T03:41:48;86693.72;;;13.05;100.00
11678;BME280;5895;41.950;24.372;2023-06-14T03:44:16;86695.22;;;13.01;100.00
11678;BME280;5895;41.950;24.372;2023-06-14T03:46:44;86700.03;;;13.09;100.00
11678;BME280;5895;41.950;24.372;2023-06-14T03:49:12;86697.97;;;13.11;100.00
11678;BME280;5895;41.950;24.372;2023-06-14T03:51:39;86699.06;;;13.15;100.00
11678;BME280;5895;41.950;24.372;2023-06-14T03:54:06;86696.50;;;13.20;100.00
11678;BME280;5895;41.950;24.372;2023-06-14T03:56:34;86696.03;;;13.23;100.00
11678;BME280;5895;41.950;24.372;2023-06-14T03:59:03;86684.03;;;13.22;100.00
11678;BME280;5895;41.950;24.372;2023-06-14T04:01:30;86706.56;;;13.34;100.00
11678;BME280;5895;41.950;24.372;2023-06-14T04:03:59;86700.56;;;13.33;100.00
11678;BME280;5895;41.950;24.372;2023-06-14T04:06:26;86703.72;;;13.35;100.00
11678;BME280;5895;41.950;24.372;2023-06-14T04:08:58;86707.13;;;13.36;100.00
11678;BME280;5895;41.950;24.372;2023-06-14T04:11:29;86704.53;;;13.36;100.00
11678;BME280;5895;41.950;24.372;2023-06-14T04:13:56;86704.03;;;13.39;100.00
11678;BME280;5895;41.950;24.372;2023-06-14T04:16:25;86708.75;;;13.42;100.00
11678;BME280;5895;41.950;24.372;2023-06-14T04:18:54;86708.25;;;13.45;100.00
11678;BME280;5895;41.950;24.372;2023-06-14T04:21:23;86717.63;;;13.46;100.00
11678;BME280;5895;41.950;24.372;2023-06-14T04:23:53;86720.25;;;13.46;100.00
11678;BME280;5895;41.950;24.372;2023-06-14T04:26:21;86717.69;;;13.51;100.00
11678;BME280;5895;41.950;24.372;2023-06-14T04:28:49;86718.53;;;13.57;100.00
11678;BME280;5895;41.950;24.372;2023-06-14T04:31:17;86712.59;;;13.61;100.00
11678;BME280;5895;41.950;24.372;2023-06-14T04:33:46;86723.59;;;13.68;100.00
11678;BME280;5895;41.950;24.372;2023-06-14T04:36:13;86721.28;;;13.72;100.00
11678;BME280;5895;41.950;24.372;2023-06-14T04:38:43;86717.44;;;13.80;100.00
11678;BME280;5895;41.950;24.372;2023-06-14T04:41:12;86718.53;;;13.84;100.00
11678;BME280;5895;41.950;24.372;2023-06-14T04:43:39;86717.53;;;13.90;100.00
11678;BME280;5895;41.950;24.372;2023-06-14T04:46:08;86726.75;;;13.97;100.00
11678;BME280;5895;41.950;24.372;2023-06-14T04:48:37;86720.22;;;14.00;100.00
11678;BME280;5895;41.950;24.372;2023-06-14T04:51:06;86742.47;;;14.08;100.00
11678;BME280;5895;41.950;24.372;2023-06-14T04:53:34;86722.69;;;14.12;100.00
11678;BME280;5895;41.950;24.372;2023-06-14T04:56:01;86724.00;;;14.14;100.00
11678;BME280;5895;41.950;24.372;2023-06-14T04:58:28;86731.06;;;14.19;100.00
11678;BME280;5895;41.950;24.372;2023-06-14T05:00:56;86731.13;;;14.24;100.00
11678;BME280;5895;41.950;24.372;2023-06-14T05:03:24;86730.34;;;14.23;100.00
11678;BME280;5895;41.950;24.372;2023-06-14T05:05:52;86729.84;;;14.26;100.00
11678;BME280;5895;41.950;24.372;2023-06-14T05:08:22;86731.16;;;14.29;100.00
11678;BME280;5895;41.950;24.372;2023-06-14T05:10:50;86734.84;;;14.33;100.00
11678;BME280;5895;41.950;24.372;2023-06-14T05:13:18;86737.50;;;14.38;100.00
11678;BME280;5895;41.950;24.372;2023-06-14T05:15:46;86737.28;;;14.45;100.00
11678;BME280;5895;41.950;24.372;2023-06-14T05:18:14;86737.38;;;14.55;100.00
11678;BME280;5895;41.950;24.372;2023-06-14T05:20:41;86746.31;;;14.64;100.00
11678;BME280;5895;41.950;24.372;2023-06-14T05:23:09;86740.38;;;14.74;100.00
11678;BME280;5895;41.950;24.372;2023-06-14T05:25:44;86745.66;;;14.84;100.00
11678;BME280;5895;41.950;24.372;2023-06-14T05:28:11;86746.53;;;15.00;100.00
11678;BME280;5895;41.950;24.372;2023-06-14T05:30:39;86760.47;;;15.16;100.00
11678;BME280;5895;41.950;24.372;2023-06-14T05:33:06;86751.88;;;15.25;100.00
11678;BME280;5895;41.950;24.372;2023-06-14T05:35:33;86760.28;;;15.32;100.00
11678;BME280;5895;41.950;24.372;2023-06-14T05:38:00;86754.03;;;15.39;100.00
11678;BME280;5895;41.950;24.372;2023-06-14T05:40:28;86754.84;;;15.44;100.00
11678;BME280;5895;41.950;24.372;2023-06-14T05:42:56;86757.19;;;15.46;100.00
11678;BME280;5895;41.950;24.372;2023-06-14T05:45:23;86758.78;;;15.52;100.00
11678;BME280;5895;41.950;24.372;2023-06-14T05:47:50;86755.13;;;15.53;100.00
11678;BME280;5895;41.950;24.372;2023-06-14T05:50:20;86759.59;;;15.57;100.00
11678;BME280;5895;41.950;24.372;2023-06-14T05:52:47;86758.81;;;15.62;100.00
11678;BME280;5895;41.950;24.372;2023-06-14T05:55:16;86762.00;;;15.69;100.00
11678;BME280;5895;41.950;24.372;2023-06-14T05:57:43;86765.16;;;15.76;100.00
11678;BME280;5895;41.950;24.372;2023-06-14T06:00:12;86768.34;;;15.83;100.00
11678;BME280;5895;41.950;24.372;2023-06-14T06:02:41;86773.00;;;15.76;100.00
11678;BME280;5895;41.950;24.372;2023-06-14T06:05:09;86771.41;;;15.65;100.00
11678;BME280;5895;41.950;24.372;2023-06-14T06:07:37;86772.41;;;15.59;100.00
11678;BME280;5895;41.950;24.372;2023-06-14T06:10:06;86773.97;;;15.55;100.00
11678;BME280;5895;41.950;24.372;2023-06-14T06:12:33;86775.81;;;15.54;100.00
11678;BME280;5895;41.950;24.372;2023-06-14T06:15:01;86778.16;;;15.56;100.00
11678;BME280;5895;41.950;24.372;2023-06-14T06:17:29;86778.16;;;15.56;100.00
11678;BME280;5895;41.950;24.372;2023-06-14T06:19:57;86787.59;;;15.62;100.00
11678;BME280;5895;41.950;24.372;2023-06-14T06:22:24;86781.38;;;15.68;100.00
11678;BME280;5895;41.950;24.372;2023-06-14T06:24:51;86776.69;;;15.75;100.00
11678;BME280;5895;41.950;24.372;2023-06-14T06:27:18;86776.19;;;15.83;100.00
11678;BME280;5895;41.950;24.372;2023-06-14T06:29:46;86778.81;;;15.94;100.00
11678;BME280;5895;41.950;24.372;2023-06-14T06:32:14;86781.72;;;16.02;100.00
11678;BME280;5895;41.950;24.372;2023-06-14T06:34:43;86786.19;;;16.12;100.00
11678;BME280;5895;41.950;24.372;2023-06-14T06:37:10;86787.78;;;16.23;100.00
11678;BME280;5895;41.950;24.372;2023-06-14T06:39:37;86783.09;;;16.30;100.00
11678;BME280;5895;41.950;24.372;2023-06-14T06:42:05;86788.34;;;16.40;100.00
11678;BME280;5895;41.950;24.372;2023-06-14T06:44:32;86783.63;;;16.48;100.00
11678;BME280;5895;41.950;24.372;2023-06-14T06:46:59;86789.13;;;16.51;100.00
11678;BME280;5895;41.950;24.372;2023-06-14T06:49:28;86791.22;;;16.44;100.00
11678;BME280;5895;41.950;24.372;2023-06-14T06:52:03;86788.59;;;16.39;100.00
11678;BME280;5895;41.950;24.372;2023-06-14T06:54:31;86784.38;;;16.38;100.00
11678;BME280;5895;41.950;24.372;2023-06-14T06:56:59;86785.19;;;16.49;100.00
11678;BME280;5895;41.950;24.372;2023-06-14T06:59:27;86791.75;;;16.56;100.00
11678;BME280;5895;41.950;24.372;2023-06-14T07:01:54;86794.38;;;16.56;100.00
11678;BME280;5895;41.950;24.372;2023-06-14T07:04:21;86788.34;;;16.51;100.00
11678;BME280;5895;41.950;24.372;2023-06-14T07:06:48;86790.19;;;16.45;100.00
11678;BME280;5895;41.950;24.372;2023-06-14T07:09:17;86787.81;;;16.44;100.00
11678;BME280;5895;41.950;24.372;2023-06-14T07:11:46;86792.53;;;16.42;100.00
11678;BME280;5895;41.950;24.372;2023-06-14T07:14:13;86791.22;;;16.49;100.00
11678;BME280;5895;41.950;24.372;2023-06-14T07:16:40;86789.38;;;16.55;100.00
11678;BME280;5895;41.950;24.372;2023-06-14T07:19:08;86794.63;;;16.65;100.00
11678;BME280;5895;41.950;24.372;2023-06-14T07:21:35;86796.78;;;16.73;100.00
11678;BME280;5895;41.950;24.372;2023-06-14T07:24:05;86791.78;;;16.77;100.00
11678;BME280;5895;41.950;24.372;2023-06-14T07:26:34;86789.94;;;16.77;100.00
11678;BME280;5895;41.950;24.372;2023-06-14T07:29:02;86788.38;;;16.76;100.00
11678;BME280;5895;41.950;24.372;2023-06-14T07:31:29;86794.13;;;16.88;100.00
11678;BME280;5895;41.950;24.372;2023-06-14T07:33:56;86790.44;;;17.00;100.00
11678;BME280;5895;41.950;24.372;2023-06-14T07:36:23;86793.84;;;17.05;100.00
11678;BME280;5895;41.950;24.372;2023-06-14T07:38:51;86792.56;;;17.08;100.00
11678;BME280;5895;41.950;24.372;2023-06-14T07:41:18;86782.59;;;17.05;100.00
11678;BME280;5895;41.950;24.372;2023-06-14T07:43:46;86788.88;;;17.04;100.00
11678;BME280;5895;41.950;24.372;2023-06-14T07:46:14;86799.91;;;17.01;100.00
11678;BME280;5895;41.950;24.372;2023-06-14T07:48:41;86794.91;;;16.99;100.00
11678;BME280;5895;41.950;24.372;2023-06-14T07:51:08;86797.81;;;16.98;100.00
11678;BME280;5895;41.950;24.372;2023-06-14T07:53:36;86800.16;;;16.99;100.00
11678;BME280;5895;41.950;24.372;2023-06-14T07:56:03;86795.44;;;17.06;100.00
11678;BME280;5895;41.950;24.372;2023-06-14T07:58:30;86800.94;;;17.10;100.00
11678;BME280;5895;41.950;24.372;2023-06-14T08:00:59;86809.06;;;17.18;100.00
11678;BME280;5895;41.950;24.372;2023-06-14T08:03:31;86808.25;;;17.28;100.00
11678;BME280;5895;41.950;24.372;2023-06-14T08:05:58;86810.06;;;17.33;100.00
11678;BME280;5895;41.950;24.372;2023-06-14T08:08:26;86815.56;;;17.41;100.00
11678;BME280;5895;41.950;24.372;2023-06-14T08:10:53;86817.91;;;17.48;100.00
11678;BME280;5895;41.950;24.372;2023-06-14T08:13:20;86822.59;;;17.56;100.00
11678;BME280;5895;41.950;24.372;2023-06-14T08:15:47;86824.19;;;17.62;100.00
11678;BME280;5895;41.950;24.372;2023-06-14T08:18:16;86819.97;;;17.66;100.00
11678;BME280;5895;41.950;24.372;2023-06-14T08:20:43;86826.00;;;17.67;100.00
11678;BME280;5895;41.950;24.372;2023-06-14T08:23:10;86831.25;;;17.67;100.00
11678;BME280;5895;41.950;24.372;2023-06-14T08:25:37;86835.47;;;17.68;100.00
11678;BME280;5895;41.950;24.372;2023-06-14T08:28:04;86834.69;;;17.62;100.00
11678;BME280;5895;41.950;24.372;2023-06-14T08:30:32;86834.44;;;17.59;100.00
11678;BME280;5895;41.950;24.372;2023-06-14T08:32:59;86836.00;;;17.50;100.00
11678;BME280;5895;41.950;24.372;2023-06-14T08:35:28;86842.81;;;17.51;100.00
11678;BME280;5895;41.950;24.372;2023-06-14T08:37:55;86842.81;;;17.51;100.00
11678;BME280;5895;41.950;24.372;2023-06-14T08:40:23;86843.09;;;17.54;100.00
11678;BME280;5895;41.950;24.372;2023-06-14T08:42:52;86840.72;;;17.63;100.00
11678;BME280;5895;41.950;24.372;2023-06-14T08:45:20;86845.41;;;17.66;100.00
11678;BME280;5895;41.950;24.372;2023-06-14T08:47:48;86856.69;;;17.66;100.00
11678;BME280;5895;41.950;24.372;2023-06-14T08:50:20;86856.44;;;17.68;100.00
11678;BME280;5895;41.950;24.372;2023-06-14T08:52:53;86844.13;;;17.68;100.00
11678;BME280;5895;41.950;24.372;2023-06-14T08:55:23;86852.22;;;17.67;100.00
11678;BME280;5895;41.950;24.372;2023-06-14T08:57:54;86843.84;;;17.80;100.00
11678;BME280;5895;41.950;24.372;2023-06-14T09:00:23;86854.03;;;17.92;100.00
11678;BME280;5895;41.950;24.372;2023-06-14T09:02:51;86851.69;;;17.90;100.00
11678;BME280;5895;41.950;24.372;2023-06-14T09:05:22;86854.03;;;17.97;100.00
11678;BME280;5895;41.950;24.372;2023-06-14T09:07:51;86847.13;;;18.11;100.00
11678;BME280;5895;41.950;24.372;2023-06-14T09:10:18;86850.53;;;18.12;100.00
11678;BME280;5895;41.950;24.372;2023-06-14T09:12:45;86856.81;;;18.21;100.00
11678;BME280;5895;41.950;24.372;2023-06-14T09:15:13;86851.84;;;18.19;100.00
11678;BME280;5895;41.950;24.372;2023-06-14T09:17:40;86854.78;;;18.13;100.00
11678;BME280;5895;41.950;24.372;2023-06-14T09:20:09;86846.38;;;18.01;100.00
11678;BME280;5895;41.950;24.372;2023-06-14T09:22:39;86848.78;;;17.92;100.00
11678;BME280;5895;41.950;24.372;2023-06-14T09:25:09;86848.53;;;17.88;100.00
11678;BME280;5895;41.950;24.372;2023-06-14T09:27:37;86848.53;;;17.88;100.00
11678;BME280;5895;41.950;24.372;2023-06-14T09:30:10;86851.69;;;17.90;100.00
11678;BME280;5895;41.950;24.372;2023-06-14T09:32:39;86854.28;;;17.95;100.00
11678;BME280;5895;41.950;24.372;2023-06-14T09:35:07;86852.47;;;17.91;100.00
11678;BME280;5895;41.950;24.372;2023-06-14T09:37:35;86855.91;;;17.86;100.00
11678;BME280;5895;41.950;24.372;2023-06-14T09:40:04;86851.72;;;17.80;100.00
11678;BME280;5895;41.950;24.372;2023-06-14T09:42:34;86859.06;;;17.73;100.00
11678;BME280;5895;41.950;24.372;2023-06-14T09:45:03;86850.94;;;17.59;100.00
11678;BME280;5895;41.950;24.372;2023-06-14T09:47:31;86855.16;;;17.50;100.00
11678;BME280;5895;41.950;24.372;2023-06-14T09:49:58;86861.22;;;17.40;100.00
11678;BME280;5895;41.950;24.372;2023-06-14T09:52:27;86861.22;;;17.35;100.00
11678;BME280;5895;41.950;24.372;2023-06-14T09:54:55;86863.84;;;17.40;100.00
11678;BME280;5895;41.950;24.372;2023-06-14T09:57:23;86874.84;;;17.48;100.00
11678;BME280;5895;41.950;24.372;2023-06-14T09:59:57;86864.63;;;17.51;100.00
11678;BME280;5895;41.950;24.372;2023-06-14T10:02:26;86869.59;;;17.48;100.00
11678;BME280;5895;41.950;24.372;2023-06-14T10:04:58;86874.34;;;17.45;100.00
11678;BME280;5895;41.950;24.372;2023-06-14T10:07:34;86863.81;;;17.51;100.00
11678;BME280;5895;41.950;24.372;2023-06-14T10:10:02;86856.47;;;17.63;100.00
11678;BME280;5895;41.950;24.372;2023-06-14T10:12:30;86856.97;;;17.75;100.00
11678;BME280;5895;41.950;24.372;2023-06-14T10:14:59;86855.34;;;17.89;100.00
11678;BME280;5895;41.950;24.372;2023-06-14T10:17:35;86860.09;;;17.92;100.00
11678;BME280;5895;41.950;24.372;2023-06-14T10:20:16;86853.75;;;17.98;100.00
11678;BME280;5895;41.950;24.372;2023-06-14T10:22:49;86851.13;;;18.04;100.00
11678;BME280;5895;41.950;24.372;2023-06-14T10:25:27;86846.91;;;18.08;100.00
11678;BME280;5895;41.950;24.372;2023-06-14T10:28:14;86852.63;;;18.20;100.00
11678;BME280;5895;41.950;24.372;2023-06-14T10:31:03;86853.63;;;18.29;100.00
11678;BME280;5895;41.950;24.372;2023-06-14T10:33:31;86854.66;;;18.38;100.00
11678;BME280;5895;41.950;24.372;2023-06-14T10:36:27;86851.47;;;18.46;100.00
11678;BME280;5895;41.950;24.372;2023-06-14T10:39:05;86854.56;;;18.54;100.00
11678;BME280;5895;41.950;24.372;2023-06-14T10:41:36;86858.50;;;18.56;100.00
11678;BME280;5895;41.950;24.372;2023-06-14T10:44:33;86850.88;;;18.55;100.00
11678;BME280;5895;41.950;24.372;2023-06-14T10:47:07;86848.75;;;18.57;100.00
11678;BME280;5895;41.950;24.372;2023-06-14T10:49:42;86841.16;;;18.55;100.00
11678;BME280;5895;41.950;24.372;2023-06-14T10:52:12;86840.84;;;18.62;100.00
11678;BME280;5895;41.950;24.372;2023-06-14T10:55:06;86846.09;;;18.72;100.00
11678;BME280;5895;41.950;24.372;2023-06-14T10:57:38;86843.38;;;18.82;100.00
11678;BME280;5895;41.950;24.372;2023-06-14T11:00:07;86839.66;;;18.88;100.00
11678;BME280;5895;41.950;24.372;2023-06-14T11:05:54;86843.88;;;18.89;100.00
11678;BME280;5895;41.950;24.372;2023-06-14T11:08:40;86842.78;;;18.90;100.00
11678;BME280;5895;41.950;24.372;2023-06-14T11:11:12;86846.00;;;18.87;100.00
11678;BME280;5895;41.950;24.372;2023-06-14T11:13:41;86844.16;;;18.88;100.00
11678;BME280;5895;41.950;24.372;2023-06-14T11:16:10;86852.06;;;18.83;100.00
11678;BME280;5895;41.950;24.372;2023-06-14T11:18:38;86850.81;;;18.75;100.00
11678;BME280;5895;41.950;24.372;2023-06-14T11:21:07;86857.41;;;18.62;100.00
11678;BME280;5895;41.950;24.372;2023-06-14T11:23:35;86847.78;;;18.47;100.00
11678;BME280;5895;41.950;24.372;2023-06-14T11:26:03;86854.16;;;18.31;100.00
11678;BME280;5895;41.950;24.372;2023-06-14T11:28:38;86853.16;;;18.12;100.00
11678;BME280;5895;41.950;24.372;2023-06-14T11:31:06;86845.38;;;17.96;100.00
11678;BME280;5895;41.950;24.372;2023-06-14T11:33:34;86842.25;;;17.84;100.00
11678;BME280;5895;41.950;24.372;2023-06-14T11:36:02;86833.38;;;17.75;100.00
11678;BME280;5895;41.950;24.372;2023-06-14T11:38:35;86834.91;;;17.71;100.00
11678;BME280;5895;41.950;24.372;2023-06-14T11:41:02;86829.16;;;17.69;100.00
11678;BME280;5895;41.950;24.372;2023-06-14T11:43:30;86827.03;;;17.71;100.00
11678;BME280;5895;41.950;24.372;2023-06-14T11:45:59;86824.69;;;17.69;100.00
11678;BME280;5895;41.950;24.372;2023-06-14T11:48:36;86824.69;;;17.69;100.00
11678;BME280;5895;41.950;24.372;2023-06-14T11:51:03;86831.25;;;17.67;100.00
11678;BME280;5895;41.950;24.372;2023-06-14T11:53:32;86831.25;;;17.67;100.00
11678;BME280;5895;41.950;24.372;2023-06-14T11:56:00;86834.13;;;17.65;100.00
11678;BME280;5895;41.950;24.372;2023-06-14T11:58:29;86824.44;;;17.56;100.00
11678;BME280;5895;41.950;24.372;2023-06-14T12:00:56;86835.50;;;17.53;100.00
11678;BME280;5895;41.950;24.372;2023-06-14T12:03:23;86834.44;;;17.54;100.00
11678;BME280;5895;41.950;24.372;2023-06-14T12:06:02;86820.81;;;17.52;100.00
11678;BME280;5895;41.950;24.372;2023-06-14T12:08:34;86842.28;;;17.64;100.00
11678;BME280;5895;41.950;24.372;2023-06-14T12:11:06;86840.16;;;17.66;100.00
11678;BME280;5895;41.950;24.372;2023-06-14T12:13:37;86834.94;;;17.76;100.00
11678;BME280;5895;41.950;24.372;2023-06-14T12:16:04;86838.59;;;17.85;100.00
11678;BME280;5895;41.950;24.372;2023-06-14T12:18:33;86838.03;;;17.93;100.00
11678;BME280;5895;41.950;24.372;2023-06-14T12:21:00;86834.81;;;18.07;100.00
11678;BME280;5895;41.950;24.372;2023-06-14T12:23:43;86834.00;;;18.16;100.00
11678;BME280;5895;41.950;24.372;2023-06-14T12:26:13;86831.63;;;18.20;100.00
11678;BME280;5895;41.950;24.372;2023-06-14T12:28:41;86824.78;;;18.24;100.00
11678;BME280;5895;41.950;24.372;2023-06-14T12:31:08;86829.50;;;18.22;100.00
11678;BME280;5895;41.950;24.372;2023-06-14T12:33:35;86827.44;;;18.19;100.00
11678;BME280;5895;41.950;24.372;2023-06-14T12:36:04;86829.56;;;18.07;100.00
11678;BME280;5895;41.950;24.372;2023-06-14T12:38:32;86826.44;;;18.05;100.00
11678;BME280;5895;41.950;24.372;2023-06-14T12:41:01;86823.31;;;17.97;100.00
11678;BME280;5895;41.950;24.372;2023-06-14T12:43:28;86837.22;;;17.98;100.00
11678;BME280;5895;41.950;24.372;2023-06-14T12:45:55;86827.25;;;17.95;100.00
11678;BME280;5895;41.950;24.372;2023-06-14T12:48:22;86829.63;;;17.91;100.00
11678;BME280;5895;41.950;24.372;2023-06-14T12:50:49;86832.22;;;18.02;100.00
11678;BME280;5895;41.950;24.372;2023-06-14T12:53:16;86831.13;;;18.13;100.00
11678;BME280;5895;41.950;24.372;2023-06-14T12:55:43;86825.25;;;18.36;100.00
11678;BME280;5895;41.950;24.372;2023-06-14T12:58:12;86820.59;;;18.62;100.00
11678;BME280;5895;41.950;24.372;2023-06-14T13:00:39;86826.53;;;18.88;98.18
11678;BME280;5895;41.950;24.372;2023-06-14T13:03:07;86816.44;;;19.00;96.91